createdAt,value
2022-08-20T00:00:42.638Z,24.73
2022-08-20T00:03:15.185Z,24.72
2022-08-20T00:05:49.592Z,24.70
2022-08-20T00:08:17.923Z,24.56
2022-08-20T00:10:46.246Z,24.64
2022-08-20T00:13:20.261Z,24.62
2022-08-20T00:15:48.106Z,24.60
2022-08-20T00:18:15.414Z,24.58
2022-08-20T00:20:47.030Z,24.57
2022-08-20T00:23:14.763Z,24.50
2022-08-20T00:25:43.485Z,24.43
2022-08-20T00:28:10.939Z,24.47
2022-08-20T00:30:39.828Z,24.42
2022-08-20T00:33:10.537Z,24.36
2022-08-20T00:35:43.109Z,24.31
2022-08-20T00:38:10.426Z,24.31
2022-08-20T00:40:56.595Z,24.28
2022-08-20T00:43:30.965Z,24.24
2022-08-20T00:46:00.582Z,24.20
2022-08-20T00:48:32.138Z,24.14
2022-08-20T00:51:07.646Z,23.97
2022-08-20T00:53:36.083Z,23.77
2022-08-20T00:56:05.348Z,23.70
2022-08-20T00:58:33.205Z,23.62
2022-08-20T01:01:00.503Z,23.48
2022-08-20T01:03:27.571Z,23.34
2022-08-20T01:05:54.515Z,23.24
2022-08-20T01:08:24.804Z,23.13
2022-08-20T01:10:54.074Z,23.07
2022-08-20T01:13:23.821Z,23.13
2022-08-20T01:15:54.895Z,23.21
2022-08-20T01:18:25.226Z,23.31
2022-08-20T01:20:56.843Z,23.37
2022-08-20T01:23:32.434Z,23.41
2022-08-20T01:26:09.090Z,23.43
2022-08-20T01:28:50.738Z,23.44
2022-08-20T01:31:21.525Z,23.47
2022-08-20T01:33:51.023Z,23.48
2022-08-20T01:36:23.467Z,23.49
2022-08-20T01:38:54.036Z,23.51
2022-08-20T01:42:13.172Z,23.52
2022-08-20T01:44:43.082Z,23.49
2022-08-20T01:47:13.018Z,23.51
2022-08-20T01:49:45.515Z,23.49
2022-08-20T01:52:22.956Z,23.47
2022-08-20T01:54:49.917Z,23.45
2022-08-20T01:57:19.210Z,23.45
2022-08-20T01:59:48.004Z,23.42
2022-08-20T02:02:15.014Z,23.39
2022-08-20T02:04:42.629Z,23.32
2022-08-20T02:07:15.975Z,23.27
2022-08-20T02:09:43.888Z,23.31
2022-08-20T02:12:14.463Z,23.28
2022-08-20T02:14:44.125Z,23.25
2022-08-20T02:17:12.585Z,23.19
2022-08-20T02:19:44.472Z,23.06
2022-08-20T02:22:23.675Z,22.89
2022-08-20T02:24:51.616Z,22.65
2022-08-20T02:27:19.218Z,22.59
2022-08-20T02:29:46.932Z,22.42
2022-08-20T02:32:24.137Z,22.22
2022-08-20T02:35:00.026Z,22.15
2022-08-20T02:37:28.382Z,22.11
2022-08-20T02:39:55.360Z,21.71
2022-08-20T02:42:22.402Z,21.69
2022-08-20T02:44:49.360Z,21.69
2022-08-20T02:47:17.342Z,21.55
2022-08-20T02:49:44.221Z,21.54
2022-08-20T02:52:11.266Z,21.35
2022-08-20T02:54:38.238Z,21.36
2022-08-20T02:57:05.451Z,21.18
2022-08-20T02:59:32.435Z,21.13
2022-08-20T03:02:00.516Z,21.14
2022-08-20T03:04:31.200Z,21.13
2022-08-20T03:06:59.397Z,21.13
2022-08-20T03:09:26.657Z,20.98
2022-08-20T03:11:54.545Z,21.08
2022-08-20T03:14:21.679Z,21.06
2022-08-20T03:16:48.738Z,21.02
2022-08-20T03:19:15.910Z,21.03
2022-08-20T03:21:43.005Z,21.03
2022-08-20T03:24:10.051Z,21.05
2022-08-20T03:26:37.051Z,21.03
2022-08-20T03:29:04.073Z,21.05
2022-08-20T03:31:31.226Z,21.03
2022-08-20T03:33:58.155Z,21.00
2022-08-20T03:36:28.137Z,21.01
2022-08-20T03:39:01.331Z,20.97
2022-08-20T03:41:29.270Z,20.91
2022-08-20T03:43:56.404Z,20.90
2022-08-20T03:46:24.125Z,20.87
2022-08-20T03:49:00.366Z,20.83
2022-08-20T03:51:56.996Z,20.77
2022-08-20T03:54:19.248Z,20.66
2022-08-20T03:56:46.213Z,20.63
2022-08-20T03:59:13.168Z,20.58
2022-08-20T04:01:45.803Z,20.56
2022-08-20T04:04:14.358Z,20.57
2022-08-20T04:06:42.554Z,20.55
2022-08-20T04:09:11.954Z,20.51
2022-08-20T04:11:40.428Z,20.55
2022-08-20T04:14:07.746Z,20.50
2022-08-20T04:16:37.835Z,20.49
2022-08-20T04:19:05.307Z,20.50
2022-08-20T04:21:33.643Z,20.51
2022-08-20T04:24:05.585Z,20.53
2022-08-20T04:26:35.399Z,20.39
2022-08-20T04:29:02.409Z,20.46
2022-08-20T04:31:35.333Z,20.47
2022-08-20T04:34:03.945Z,20.47
2022-08-20T04:36:31.256Z,20.52
2022-08-20T04:38:58.271Z,20.55
2022-08-20T04:41:25.282Z,20.61
2022-08-20T04:43:54.544Z,20.67
2022-08-20T04:46:24.044Z,20.69
2022-08-20T04:48:51.281Z,20.83
2022-08-20T04:51:18.899Z,20.87
2022-08-20T04:53:52.251Z,20.87
2022-08-20T04:56:24.152Z,20.92
2022-08-20T04:58:52.990Z,21.00
2022-08-20T05:01:19.996Z,21.04
2022-08-20T05:03:49.930Z,21.12
2022-08-20T05:06:18.310Z,21.19
2022-08-20T05:08:45.708Z,21.19
2022-08-20T05:11:34.881Z,21.31
2022-08-20T05:14:02.019Z,21.38
2022-08-20T05:16:28.961Z,21.52
2022-08-20T05:18:55.901Z,21.63
2022-08-20T05:21:23.161Z,21.76
2022-08-20T05:23:50.117Z,21.85
2022-08-20T05:26:20.495Z,22.01
2022-08-20T05:28:57.854Z,22.12
2022-08-20T05:31:31.399Z,22.21
2022-08-20T05:34:10.421Z,22.30
2022-08-20T05:36:44.876Z,22.38
2022-08-20T05:39:12.926Z,22.45
2022-08-20T05:41:40.795Z,22.54
2022-08-20T05:44:11.001Z,22.62
2022-08-20T05:46:41.301Z,22.67
2022-08-20T05:49:15.719Z,22.82
2022-08-20T05:51:43.436Z,22.92
2022-08-20T05:54:10.472Z,23.02
2022-08-20T05:56:37.926Z,23.10
2022-08-20T05:59:08.135Z,23.26
2022-08-20T06:01:37.983Z,23.34
2022-08-20T06:04:24.102Z,23.41
2022-08-20T06:07:02.665Z,23.56
2022-08-20T06:09:31.884Z,23.62
2022-08-20T06:12:02.169Z,23.71
2022-08-20T06:14:29.421Z,23.85
2022-08-20T06:17:02.764Z,23.93
2022-08-20T06:19:32.298Z,24.03
2022-08-20T06:22:00.402Z,24.11
2022-08-20T06:24:27.427Z,24.20
2022-08-20T06:26:59.679Z,24.22
2022-08-20T06:29:28.333Z,24.20
2022-08-20T06:31:55.292Z,24.22
2022-08-20T06:34:23.644Z,24.26
2022-08-20T06:36:50.635Z,24.30
2022-08-20T06:39:17.631Z,24.43
2022-08-20T06:41:45.230Z,24.59
2022-08-20T06:44:12.194Z,24.66
2022-08-20T06:46:39.203Z,24.75
2022-08-20T06:49:07.585Z,24.86
2022-08-20T06:51:35.350Z,24.92
2022-08-20T06:54:02.263Z,24.98
2022-08-20T06:56:29.228Z,25.04
2022-08-20T06:58:56.116Z,25.10
2022-08-20T07:01:23.279Z,25.15
2022-08-20T07:03:55.379Z,25.22
2022-08-20T07:06:25.994Z,25.35
2022-08-20T07:08:56.045Z,25.56
2022-08-20T07:11:27.751Z,25.72
2022-08-20T07:13:56.937Z,25.86
2022-08-20T07:16:24.411Z,26.05
2022-08-20T07:18:51.527Z,26.13
2022-08-20T07:21:18.511Z,26.21
2022-08-20T07:23:45.559Z,26.28
2022-08-20T07:26:13.414Z,26.35
2022-08-20T07:28:40.796Z,26.45
2022-08-20T07:31:26.987Z,26.55
2022-08-20T07:33:54.275Z,26.63
2022-08-20T07:36:21.407Z,26.77
2022-08-20T07:38:51.129Z,26.86
2022-08-20T07:41:19.469Z,26.98
2022-08-20T07:43:47.381Z,27.10
2022-08-20T07:46:17.950Z,27.12
2022-08-20T07:48:50.574Z,27.17
2022-08-20T07:51:20.177Z,27.34
2022-08-20T07:53:48.533Z,27.47
2022-08-20T07:56:19.722Z,27.52
2022-08-20T07:58:52.605Z,27.58
2022-08-20T08:01:22.599Z,27.74
2022-08-20T08:03:50.715Z,27.79
2022-08-20T08:06:29.374Z,27.88
2022-08-20T08:09:13.375Z,27.95
2022-08-20T08:11:49.193Z,27.98
2022-08-20T08:14:23.696Z,28.03
2022-08-20T08:16:53.086Z,28.10
2022-08-20T08:19:20.444Z,28.19
2022-08-20T08:21:47.627Z,28.27
2022-08-20T08:24:20.312Z,28.40
2022-08-20T08:26:50.375Z,28.52
2022-08-20T08:29:17.807Z,28.55
2022-08-20T08:31:45.230Z,28.77
2022-08-20T08:34:13.260Z,28.92
2022-08-20T08:36:40.464Z,29.03
2022-08-20T08:39:07.497Z,29.10
2022-08-20T08:41:40.641Z,29.18
2022-08-20T08:44:12.991Z,29.32
2022-08-20T08:46:43.513Z,29.32
2022-08-20T08:49:14.619Z,29.41
2022-08-20T08:51:57.517Z,29.44
2022-08-20T08:54:29.444Z,29.55
2022-08-20T08:56:56.719Z,29.61
2022-08-20T08:59:24.010Z,29.78
2022-08-20T09:01:57.122Z,29.88
2022-08-20T09:04:33.404Z,30.08
2022-08-20T09:07:03.077Z,30.13
2022-08-20T09:09:37.095Z,30.19
2022-08-20T09:12:12.830Z,30.20
2022-08-20T09:14:40.131Z,30.29
2022-08-20T09:17:07.919Z,30.31
2022-08-20T09:19:35.286Z,30.39
2022-08-20T09:22:13.338Z,30.38
2022-08-20T09:24:40.604Z,30.29
2022-08-20T09:27:07.945Z,30.32
2022-08-20T09:29:35.626Z,30.49
2022-08-20T09:32:12.021Z,30.63
2022-08-20T09:34:42.734Z,30.37
2022-08-20T09:37:10.575Z,30.50
2022-08-20T09:39:37.610Z,30.65
2022-08-20T09:42:10.033Z,30.76
2022-08-20T09:44:37.549Z,30.89
2022-08-20T09:47:04.758Z,31.00
2022-08-20T09:49:31.904Z,31.13
2022-08-20T09:52:01.512Z,31.27
2022-08-20T09:54:30.361Z,31.51
2022-08-20T09:56:58.839Z,31.64
2022-08-20T09:59:27.020Z,31.73
2022-08-20T10:01:53.914Z,31.93
2022-08-20T10:04:21.045Z,31.94
2022-08-20T10:06:47.978Z,31.96
2022-08-20T10:09:15.168Z,32.06
2022-08-20T10:11:42.177Z,32.26
2022-08-20T10:14:11.625Z,32.39
2022-08-20T10:16:38.553Z,32.63
2022-08-20T10:19:06.054Z,32.64
2022-08-20T10:21:38.082Z,32.83
2022-08-20T10:24:05.878Z,32.98
2022-08-20T10:26:32.884Z,32.74
2022-08-20T10:28:59.886Z,32.70
2022-08-20T10:31:27.083Z,32.57
2022-08-20T10:33:54.081Z,32.57
2022-08-20T10:36:21.033Z,32.75
2022-08-20T10:38:49.299Z,32.88
2022-08-20T10:41:16.319Z,32.99
2022-08-20T10:43:43.342Z,32.76
2022-08-20T10:46:10.294Z,32.93
2022-08-20T10:48:37.553Z,32.87
2022-08-20T10:51:04.846Z,32.61
2022-08-20T10:53:32.047Z,32.67
2022-08-20T10:55:59.451Z,32.72
2022-08-20T10:58:27.331Z,33.02
2022-08-20T11:01:05.118Z,33.16
2022-08-20T11:03:32.077Z,33.19
2022-08-20T11:05:59.079Z,33.14
2022-08-20T11:08:34.460Z,32.88
2022-08-20T11:11:04.463Z,32.69
2022-08-20T11:13:33.401Z,32.73
2022-08-20T11:16:01.321Z,32.61
2022-08-20T11:18:28.520Z,32.56
2022-08-20T11:20:56.311Z,32.75
2022-08-20T11:23:23.244Z,32.97
2022-08-20T11:25:50.719Z,33.17
2022-08-20T11:28:31.426Z,33.17
2022-08-20T11:30:59.449Z,33.28
2022-08-20T11:33:26.392Z,33.39
2022-08-20T11:35:53.381Z,33.49
2022-08-20T11:38:20.370Z,33.38
2022-08-20T11:40:47.929Z,33.21
2022-08-20T11:43:16.957Z,32.99
2022-08-20T11:45:52.919Z,32.98
2022-08-20T11:48:20.131Z,32.69
2022-08-20T11:50:48.322Z,32.52
2022-08-20T11:53:15.133Z,32.16
2022-08-20T11:55:42.640Z,32.00
2022-08-20T11:58:10.797Z,31.92
2022-08-20T12:00:37.678Z,31.94
2022-08-20T12:03:09.585Z,31.76
2022-08-20T12:05:42.996Z,31.53
2022-08-20T12:08:27.290Z,31.27
2022-08-20T12:11:01.553Z,31.02
2022-08-20T12:13:48.424Z,30.90
2022-08-20T12:16:19.964Z,30.78
2022-08-20T12:18:47.920Z,30.76
2022-08-20T12:21:15.237Z,30.73
2022-08-20T12:23:42.387Z,30.67
2022-08-20T12:26:09.432Z,30.63
2022-08-20T12:28:36.951Z,30.63
2022-08-20T12:31:03.982Z,30.57
2022-08-20T12:33:31.251Z,30.50
2022-08-20T12:35:58.317Z,30.52
2022-08-20T12:38:25.457Z,30.33
2022-08-20T12:40:52.412Z,30.12
2022-08-20T12:43:24.237Z,29.96
2022-08-20T12:45:52.157Z,29.70
2022-08-20T12:48:21.876Z,29.33
2022-08-20T12:50:50.316Z,29.03
2022-08-20T12:53:17.629Z,28.78
2022-08-20T12:55:45.073Z,28.25
2022-08-20T12:58:12.108Z,27.74
2022-08-20T13:00:47.250Z,27.13
2022-08-20T13:03:17.266Z,26.37
2022-08-20T13:05:45.487Z,26.22
2022-08-20T13:08:13.047Z,26.21
2022-08-20T13:10:44.584Z,26.37
2022-08-20T13:13:13.393Z,26.65
2022-08-20T13:15:40.935Z,26.82
2022-08-20T13:18:08.495Z,26.92
2022-08-20T13:20:37.105Z,26.87
2022-08-20T13:23:05.652Z,26.83
2022-08-20T13:25:33.135Z,26.95
2022-08-20T13:28:02.435Z,27.01
2022-08-20T13:30:29.591Z,27.08
2022-08-20T13:32:56.815Z,27.17
2022-08-20T13:35:23.997Z,27.22
2022-08-20T13:37:51.191Z,27.29
2022-08-20T13:40:18.766Z,27.34
2022-08-20T13:42:45.932Z,27.31
2022-08-20T13:45:13.407Z,27.37
2022-08-20T13:47:42.285Z,27.40
2022-08-20T13:50:16.379Z,27.20
2022-08-20T13:52:44.046Z,26.73
2022-08-20T13:55:14.798Z,25.90
2022-08-20T13:57:42.392Z,24.75
2022-08-20T14:00:13.475Z,23.78
2022-08-20T14:02:42.015Z,23.13
2022-08-20T14:05:09.883Z,22.71
2022-08-20T14:07:38.279Z,22.41
2022-08-20T14:10:13.933Z,22.10
2022-08-20T14:12:41.231Z,21.98
2022-08-20T14:15:11.895Z,21.76
2022-08-20T14:17:42.550Z,21.37
2022-08-20T14:20:13.150Z,21.03
2022-08-20T14:22:41.553Z,20.76
2022-08-20T14:25:11.787Z,20.53
2022-08-20T14:27:39.458Z,20.46
2022-08-20T14:30:09.527Z,20.47
2022-08-20T14:32:36.770Z,20.40
2022-08-20T14:35:04.447Z,20.35
2022-08-20T14:37:38.289Z,20.22
2022-08-20T14:40:09.396Z,20.15
2022-08-20T14:42:36.864Z,20.21
2022-08-20T14:45:06.637Z,20.24
2022-08-20T14:47:36.664Z,20.16
2022-08-20T14:50:08.851Z,20.10
2022-08-20T14:52:36.910Z,19.99
2022-08-20T14:55:10.473Z,19.99
2022-08-20T14:57:38.693Z,19.97
2022-08-20T15:00:10.095Z,19.93
2022-08-20T15:02:37.821Z,19.87
2022-08-20T15:05:07.179Z,19.74
2022-08-20T15:07:37.199Z,19.65
2022-08-20T15:10:10.130Z,19.50
2022-08-20T15:12:37.138Z,19.43
2022-08-20T15:15:15.373Z,19.23
2022-08-20T15:17:58.095Z,18.99
2022-08-20T15:20:28.258Z,18.87
2022-08-20T15:22:55.669Z,18.94
2022-08-20T15:25:25.521Z,19.02
2022-08-20T15:28:00.714Z,19.08
2022-08-20T15:30:31.051Z,19.12
2022-08-20T15:32:58.261Z,19.14
2022-08-20T15:35:27.401Z,19.21
2022-08-20T15:37:57.571Z,19.25
2022-08-20T15:40:28.432Z,19.23
2022-08-20T15:42:57.843Z,19.25
2022-08-20T15:45:25.791Z,19.31
2022-08-20T15:48:15.484Z,19.32
2022-08-20T15:50:48.218Z,19.41
2022-08-20T15:53:27.953Z,19.55
2022-08-20T15:56:21.851Z,19.73
2022-08-20T15:59:04.032Z,19.90
2022-08-20T16:01:44.318Z,20.01
2022-08-20T16:04:26.722Z,20.13
2022-08-20T16:07:00.645Z,20.23
2022-08-20T16:09:45.891Z,20.30
2022-08-20T16:12:19.854Z,20.31
2022-08-20T16:14:48.243Z,20.31
2022-08-20T16:17:21.965Z,20.28
2022-08-20T16:20:02.352Z,20.31
2022-08-20T16:22:31.682Z,20.36
2022-08-20T16:24:58.802Z,20.44
2022-08-20T16:27:31.860Z,20.48
2022-08-20T16:30:34.836Z,20.49
2022-08-20T16:33:31.578Z,20.53
2022-08-20T16:36:15.044Z,20.57
2022-08-20T16:38:48.405Z,20.61
2022-08-20T16:41:21.745Z,20.64
2022-08-20T16:43:56.375Z,20.62
2022-08-20T16:46:34.026Z,20.51
2022-08-20T16:49:11.450Z,20.48
2022-08-20T16:51:43.672Z,20.40
2022-08-20T16:54:12.891Z,20.38
2022-08-20T16:56:56.929Z,20.39
2022-08-20T16:59:27.086Z,20.41
2022-08-20T17:02:10.909Z,20.47
2022-08-20T17:04:59.333Z,20.45
2022-08-20T17:07:42.553Z,20.50
2022-08-20T17:10:25.272Z,20.46
2022-08-20T17:13:01.024Z,20.43
2022-08-20T17:15:31.318Z,20.48
2022-08-20T17:17:58.553Z,20.55
2022-08-20T17:20:29.024Z,20.54
2022-08-20T17:23:11.176Z,20.52
2022-08-20T17:25:38.646Z,20.42
2022-08-20T17:28:20.700Z,20.39
2022-08-20T17:30:48.181Z,20.37
2022-08-20T17:33:27.090Z,20.25
2022-08-20T17:36:04.968Z,20.19
2022-08-20T17:38:40.080Z,20.10
2022-08-20T17:41:17.592Z,20.06
2022-08-20T17:43:45.093Z,19.98
2022-08-20T17:46:19.288Z,19.95
2022-08-20T17:48:48.289Z,19.88
2022-08-20T17:51:21.625Z,19.91
2022-08-20T17:53:57.065Z,19.93
2022-08-20T17:56:32.694Z,19.98
2022-08-20T17:59:07.454Z,20.01
2022-08-20T18:01:37.796Z,20.02
2022-08-20T18:04:05.012Z,20.00
2022-08-20T18:06:58.174Z,19.97
2022-08-20T18:09:38.555Z,19.96
2022-08-20T18:12:34.130Z,19.99
2022-08-20T18:15:24.461Z,19.95
2022-08-20T18:18:00.796Z,19.86
2022-08-20T18:20:49.569Z,19.82
2022-08-20T18:23:16.397Z,19.69
2022-08-20T18:25:53.294Z,19.43
2022-08-20T18:28:35.177Z,19.13
2022-08-20T18:31:09.137Z,18.79
2022-08-20T18:33:37.998Z,18.56
2022-08-20T18:36:19.703Z,18.36
2022-08-20T18:39:23.705Z,18.14
2022-08-20T18:42:05.682Z,17.86
2022-08-20T18:44:39.504Z,17.90
2022-08-20T18:47:19.807Z,17.76
2022-08-20T18:49:47.472Z,17.69
2022-08-20T18:52:27.640Z,17.64
2022-08-20T18:54:57.532Z,17.53
2022-08-20T18:57:27.283Z,17.55
2022-08-20T19:00:13.365Z,17.49
2022-08-20T19:02:57.860Z,17.44
2022-08-20T19:05:40.506Z,17.39
2022-08-20T19:08:08.103Z,17.34
2022-08-20T19:10:37.954Z,17.30
2022-08-20T19:13:33.456Z,17.25
2022-08-20T19:16:08.990Z,17.19
2022-08-20T19:18:53.261Z,17.16
2022-08-20T19:21:26.133Z,17.12
2022-08-20T19:23:58.105Z,17.09
2022-08-20T19:26:29.285Z,17.08
2022-08-20T19:29:02.094Z,17.06
2022-08-20T19:31:32.865Z,17.06
2022-08-20T19:34:19.993Z,17.02
2022-08-20T19:37:35.519Z,17.01
2022-08-20T19:39:58.614Z,16.89
2022-08-20T19:42:32.072Z,16.94
2022-08-20T19:45:06.214Z,16.94
2022-08-20T19:47:37.807Z,16.91
2022-08-20T19:50:23.951Z,16.88
2022-08-20T19:53:06.912Z,16.92
2022-08-20T19:55:37.281Z,16.96
2022-08-20T19:58:18.809Z,16.98
2022-08-20T20:00:55.498Z,16.92
2022-08-20T20:03:28.659Z,16.91
2022-08-20T20:06:15.168Z,16.92
2022-08-20T20:08:55.769Z,16.94
2022-08-20T20:11:30.539Z,16.94
2022-08-20T20:14:04.349Z,16.98
2022-08-20T20:16:32.583Z,16.93
2022-08-20T20:19:24.692Z,16.94
2022-08-20T20:21:49.852Z,17.01
2022-08-20T20:24:29.737Z,16.98
2022-08-20T20:26:59.457Z,17.06
2022-08-20T20:29:33.674Z,17.11
2022-08-20T20:32:11.971Z,17.08
2022-08-20T20:34:55.486Z,17.09
2022-08-20T20:37:50.906Z,17.07
2022-08-20T20:40:26.332Z,17.05
2022-08-20T20:43:22.139Z,17.02
2022-08-20T20:45:59.399Z,17.00
2022-08-20T20:48:33.810Z,17.01
2022-08-20T20:51:12.240Z,17.02
2022-08-20T20:53:49.561Z,17.01
2022-08-20T20:56:32.201Z,17.01
2022-08-20T20:59:03.983Z,16.97
2022-08-20T21:01:48.658Z,16.98
2022-08-20T21:04:22.641Z,16.96
2022-08-20T21:06:52.302Z,16.96
2022-08-20T21:09:20.491Z,16.94
2022-08-20T21:11:47.942Z,16.98
2022-08-20T21:14:16.254Z,16.96
2022-08-20T21:16:44.145Z,16.92
2022-08-20T21:19:12.272Z,16.92
2022-08-20T21:21:40.045Z,16.97
2022-08-20T21:24:07.371Z,16.95
2022-08-20T21:26:34.993Z,16.96
2022-08-20T21:29:02.130Z,17.01
2022-08-20T21:31:36.247Z,17.07
2022-08-20T21:34:03.448Z,17.10
2022-08-20T21:36:30.476Z,17.09
2022-08-20T21:38:57.442Z,17.13
2022-08-20T21:41:29.559Z,17.09
2022-08-20T21:43:58.974Z,17.08
2022-08-20T21:46:28.896Z,17.11
2022-08-20T21:48:56.647Z,17.11
2022-08-20T21:51:23.803Z,17.12
2022-08-20T21:53:50.720Z,17.10
2022-08-20T21:56:18.392Z,17.05
2022-08-20T21:58:47.346Z,17.06
2022-08-20T22:01:15.214Z,17.05
2022-08-20T22:03:43.030Z,17.03
2022-08-20T22:06:12.503Z,17.06
2022-08-20T22:08:39.825Z,17.11
2022-08-20T22:11:09.038Z,17.07
2022-08-20T22:13:36.557Z,17.11
2022-08-20T22:16:07.558Z,17.09
2022-08-20T22:18:35.076Z,17.12
2022-08-20T22:21:03.304Z,17.19
2022-08-20T22:23:30.365Z,17.18
2022-08-20T22:25:57.322Z,17.30
2022-08-20T22:28:24.455Z,17.30
2022-08-20T22:30:51.470Z,17.25
2022-08-20T22:33:23.390Z,17.30
2022-08-20T22:35:54.729Z,17.30
2022-08-20T22:38:22.995Z,17.27
2022-08-20T22:40:50.078Z,17.26
2022-08-20T22:43:17.086Z,17.22
2022-08-20T22:45:47.389Z,17.22
2022-08-20T22:48:17.013Z,17.22
2022-08-20T22:50:45.167Z,17.23
2022-08-20T22:53:13.901Z,17.27
2022-08-20T22:55:40.859Z,17.29
2022-08-20T22:58:08.648Z,17.32
2022-08-20T23:00:38.762Z,17.38
2022-08-20T23:03:07.229Z,17.38
2022-08-20T23:05:37.440Z,17.41
2022-08-20T23:08:06.949Z,17.42
2022-08-20T23:10:36.164Z,17.40
2022-08-20T23:13:03.170Z,17.36
2022-08-20T23:15:33.050Z,17.41
2022-08-20T23:18:08.104Z,17.47
2022-08-20T23:20:35.758Z,17.45
2022-08-20T23:23:02.995Z,17.45
2022-08-20T23:25:30.230Z,17.45
2022-08-20T23:28:04.197Z,17.40
2022-08-20T23:30:31.466Z,17.31
2022-08-20T23:33:01.555Z,17.31
2022-08-20T23:35:32.906Z,17.37
2022-08-20T23:38:00.677Z,17.38
2022-08-20T23:40:29.386Z,17.35
2022-08-20T23:42:57.669Z,17.42
2022-08-20T23:45:25.839Z,17.40
2022-08-20T23:47:53.286Z,17.39
2022-08-20T23:50:24.747Z,17.37
2022-08-20T23:52:52.616Z,17.33
2022-08-20T23:55:20.462Z,17.27
2022-08-20T23:57:47.416Z,17.20
